Time;durP1;ratioP1;P1;durP2;ratioP2;P2;SDS_P1;SDS_P2;PMS_P1;PMS_P2;Temp;Humidity;BMP_temperature;BMP_pressure;BME280_temperature;BME280_humidity;BME280_pressure;Samples;Min_cycle;Max_cycle;Signal;HPM_P1;HPM_P2
2022/09/20 00:01:30;;;;;;;3.63;0.98;;;19.30;99.90;;;;;;5014140;28;20030;-70
2022/09/20 00:04:00;;;;;;;2.33;0.50;;;19.60;99.90;;;;;;5014190;28;20109;-69
2022/09/20 00:06:30;;;;;;;3.40;0.90;;;19.30;99.90;;;;;;5013958;28;20100;-69
2022/09/20 00:09:00;;;;;;;5.77;0.90;;;19.30;99.90;;;;;;5014193;28;20030;-69
2022/09/20 00:11:30;;;;;;;3.50;0.68;;;19.40;99.90;;;;;;5014209;28;20540;-69
2022/09/20 00:13:59;;;;;;;2.05;0.52;;;19.00;99.90;;;;;;5014121;28;20037;-69
2022/09/20 00:16:30;;;;;;;2.92;0.68;;;19.00;99.90;;;;;;5013737;28;20493;-69
2022/09/20 00:18:59;;;;;;;3.13;0.60;;;19.10;99.90;;;;;;5013982;28;20036;-70
2022/09/20 00:21:29;;;;;;;4.03;0.60;;;19.10;99.90;;;;;;5013723;28;20382;-70
2022/09/20 00:23:57;;;;;;;4.53;0.70;;;19.30;99.90;;;;;;5013774;28;20026;-70
2022/09/20 00:26:26;;;;;;;4.30;0.73;;;19.50;99.90;;;;;;5012392;28;20049;-69
2022/09/20 00:28:54;;;;;;;6.88;0.70;;;19.60;99.90;;;;;;5013750;28;20032;-69
2022/09/20 00:31:22;;;;;;;4.18;0.52;;;19.60;99.90;;;;;;5013613;28;20025;-68
2022/09/20 00:36:38;;;;;;;3.08;0.98;;;20.30;99.90;;;;;;5014056;28;20092;-68
2022/09/20 00:39:05;;;;;;;6.15;1.15;;;20.00;99.90;;;;;;5013525;28;20079;-68
2022/09/20 00:41:33;;;;;;;5.40;0.80;;;20.00;99.90;;;;;;5013503;28;20026;-68
2022/09/20 00:44:02;;;;;;;3.90;0.70;;;19.70;99.90;;;;;;5013521;28;20087;-68
2022/09/20 00:46:33;;;;;;;2.88;0.60;;;19.60;99.90;;;;;;5013094;28;20117;-68
2022/09/20 00:49:11;;;;;;;3.40;0.60;;;19.50;99.90;;;;;;5013912;28;20076;-69
2022/09/20 00:51:44;;;;;;;4.05;0.80;;;19.50;99.90;;;;;;5013516;28;20021;-69
2022/09/20 00:54:15;;;;;;;6.10;0.75;;;19.50;99.90;;;;;;5013490;28;20030;-69
2022/09/20 00:56:43;;;;;;;2.60;0.60;;;19.30;99.90;;;;;;5013480;28;20026;-69
2022/09/20 00:59:34;;;;;;;6.10;0.70;;;19.10;99.90;;;;;;5012990;28;20037;-68
2022/09/20 01:02:11;;;;;;;3.25;0.98;;;19.20;99.90;;;;;;5013208;28;20026;-69
2022/09/20 01:04:42;;;;;;;5.97;1.02;;;19.30;99.90;;;;;;5013024;28;20501;-69
2022/09/20 01:07:13;;;;;;;3.80;0.60;;;19.20;99.90;;;;;;5012867;28;20498;-68
2022/09/20 01:09:40;;;;;;;4.68;0.68;;;19.20;99.90;;;;;;5009896;28;20102;-69
2022/09/20 01:12:14;;;;;;;7.47;0.85;;;19.30;99.90;;;;;;5010397;28;20034;-68
2022/09/20 01:14:43;;;;;;;6.15;1.00;;;19.20;99.90;;;;;;5012751;28;20018;-69
2022/09/20 01:17:12;;;;;;;3.30;0.60;;;19.20;99.90;;;;;;5012751;28;20543;-69
2022/09/20 01:19:51;;;;;;;3.75;0.63;;;19.40;99.90;;;;;;5013000;28;20029;-69
2022/09/20 01:22:48;;;;;;;3.15;0.60;;;19.50;99.90;;;;;;5013004;28;20474;-69
2022/09/20 01:25:41;;;;;;;3.65;0.47;;;19.80;99.90;;;;;;5002886;28;20037;-69
2022/09/20 01:28:08;;;;;;;4.05;0.70;;;19.90;99.90;;;;;;5011522;28;20132;-68
2022/09/20 01:30:50;;;;;;;4.03;0.77;;;19.80;99.90;;;;;;5012839;28;20100;-68
2022/09/20 01:33:27;;;;;;;4.50;0.68;;;19.60;99.90;;;;;;5012034;28;20053;-68
2022/09/20 01:35:56;;;;;;;3.80;0.57;;;19.50;99.90;;;;;;5013187;28;20037;-68
2022/09/20 01:39:00;;;;;;;5.53;1.00;;;19.60;99.90;;;;;;5011796;28;20537;-68
2022/09/20 01:41:38;;;;;;;3.88;0.60;;;19.80;99.90;;;;;;5011535;28;20045;-69
2022/09/20 01:44:38;;;;;;;4.47;0.57;;;20.10;99.90;;;;;;5010483;28;20041;-67
2022/09/20 01:47:21;;;;;;;5.93;0.80;;;20.20;99.90;;;;;;4999531;28;20038;-68
2022/09/20 01:49:52;;;;;;;3.95;0.82;;;20.10;99.90;;;;;;5009292;28;20018;-67
2022/09/20 01:52:57;;;;;;;3.10;0.57;;;19.90;99.90;;;;;;5008246;28;20209;-67
2022/09/20 01:55:52;;;;;;;5.07;0.60;;;19.80;99.90;;;;;;5001110;28;20034;-67
2022/09/20 01:58:40;;;;;;;5.20;0.57;;;20.00;99.90;;;;;;5009662;28;20113;-67
2022/09/20 02:01:45;;;;;;;3.95;0.70;;;20.00;99.90;;;;;;5012534;28;20025;-68
2022/09/20 02:04:46;;;;;;;4.88;1.00;;;20.00;99.90;;;;;;4996033;28;20040;-68
2022/09/20 02:07:31;;;;;;;5.25;0.82;;;20.20;99.90;;;;;;5012623;28;20045;-68
2022/09/20 02:10:54;;;;;;;3.40;0.60;;;20.60;99.90;;;;;;5013035;28;20022;-69
2022/09/20 02:13:29;;;;;;;5.30;1.00;;;21.00;99.90;;;;;;4994825;28;20026;-68
2022/09/20 02:16:09;;;;;;;2.92;0.55;;;21.10;99.90;;;;;;4993632;28;20413;-69
2022/09/20 02:19:06;;;;;;;5.20;0.70;;;20.80;99.90;;;;;;5010564;28;20107;-68
2022/09/20 02:22:04;;;;;;;4.70;0.75;;;20.30;99.90;;;;;;5016338;28;20022;-68
2022/09/20 02:25:05;;;;;;;3.03;0.63;;;20.00;99.90;;;;;;5016063;28;20022;-69
2022/09/20 02:28:12;;;;;;;3.90;0.60;;;20.30;99.90;;;;;;5016387;28;20025;-68
2022/09/20 02:30:59;;;;;;;4.22;0.60;;;20.10;99.90;;;;;;5016332;28;20025;-68
2022/09/20 02:33:43;;;;;;;3.40;0.80;;;19.70;99.90;;;;;;5015935;28;20080;-68
2022/09/20 02:36:30;;;;;;;4.20;0.60;;;19.70;99.90;;;;;;5016117;28;20029;-68
2022/09/20 02:39:07;;;;;;;3.78;0.90;;;19.90;99.90;;;;;;5015741;28;20026;-68
2022/09/20 02:42:03;;;;;;;4.97;0.85;;;20.70;99.90;;;;;;5016045;28;20022;-68
2022/09/20 02:45:09;;;;;;;4.57;0.77;;;21.20;99.90;;;;;;5010910;28;20434;-68
2022/09/20 02:47:39;;;;;;;5.63;0.88;;;21.80;99.90;;;;;;5015776;28;20022;-68
2022/09/20 02:50:31;;;;;;;4.55;1.08;;;21.60;99.90;;;;;;5014256;28;20490;-69
2022/09/20 02:53:16;;;;;;;4.28;0.70;;;22.00;99.90;;;;;;5015675;28;20489;-69
2022/09/20 02:55:51;;;;;;;3.70;0.65;;;22.40;99.90;;;;;;5016004;28;20026;-69
2022/09/20 02:58:33;;;;;;;4.43;0.68;;;22.10;99.90;;;;;;5015463;28;20026;-68
2022/09/20 03:01:12;;;;;;;4.70;0.70;;;22.20;99.90;;;;;;5015567;28;20034;-68
2022/09/20 03:03:58;;;;;;;3.30;0.52;;;21.80;99.90;;;;;;5015274;28;20048;-68
2022/09/20 03:06:25;;;;;;;4.72;0.70;;;21.60;99.90;;;;;;5015331;28;20050;-69
2022/09/20 03:09:01;;;;;;;5.15;0.90;;;21.90;99.90;;;;;;5015298;28;20136;-68
2022/09/20 03:12:02;;;;;;;4.68;0.70;;;22.00;99.90;;;;;;5015785;28;20053;-68
2022/09/20 03:14:37;;;;;;;2.38;0.70;;;22.40;99.90;;;;;;5015170;28;20152;-67
2022/09/20 03:17:10;;;;;;;1.73;0.60;;;21.90;99.90;;;;;;5015158;28;20049;-68
2022/09/20 03:20:06;;;;;;;4.07;0.80;;;21.80;99.90;;;;;;5015187;28;20046;-68
2022/09/20 03:22:49;;;;;;;3.95;0.70;;;21.40;99.90;;;;;;5010311;28;20026;-68
2022/09/20 03:25:38;;;;;;;5.97;0.80;;;21.60;99.90;;;;;;5015173;28;20386;-67
2022/09/20 03:28:08;;;;;;;4.97;0.77;;;21.90;99.90;;;;;;5014812;28;20033;-67
2022/09/20 03:31:12;;;;;;;3.38;0.75;;;22.00;99.90;;;;;;5014873;28;20108;-67
2022/09/20 03:34:20;;;;;;;4.15;0.73;;;22.00;99.90;;;;;;5015051;28;20389;-67
2022/09/20 03:37:15;;;;;;;2.97;0.60;;;21.80;99.90;;;;;;5010807;28;20038;-67
2022/09/20 03:40:05;;;;;;;3.60;0.82;;;21.80;99.90;;;;;;5014857;28;20045;-67
2022/09/20 03:42:35;;;;;;;3.28;0.52;;;22.00;99.90;;;;;;5014700;28;20359;-67
2022/09/20 03:45:12;;;;;;;4.43;0.65;;;21.70;99.90;;;;;;5014813;28;20022;-68
2022/09/20 03:47:59;;;;;;;4.13;0.60;;;21.80;99.90;;;;;;5013321;28;20033;-68
2022/09/20 03:50:59;;;;;;;4.63;0.90;;;22.00;99.90;;;;;;5014608;28;20061;-68
2022/09/20 03:53:32;;;;;;;3.55;0.85;;;22.20;99.90;;;;;;5002434;28;20099;-68
2022/09/20 03:56:36;;;;;;;2.53;0.52;;;22.00;99.90;;;;;;5014634;28;20030;-67
2022/09/20 03:59:31;;;;;;;5.18;0.50;;;22.30;99.90;;;;;;5014563;28;20386;-68
2022/09/20 04:02:20;;;;;;;3.35;0.65;;;22.40;99.90;;;;;;5014625;28;20025;-67
2022/09/20 04:05:09;;;;;;;1.77;0.45;;;22.10;99.90;;;;;;5014382;28;20021;-68
2022/09/20 04:08:11;;;;;;;3.42;0.68;;;22.30;99.90;;;;;;5013984;28;20088;-67
2022/09/20 04:10:45;;;;;;;4.35;0.57;;;22.40;99.90;;;;;;5014060;28;20022;-68
2022/09/20 04:13:38;;;;;;;4.63;0.85;;;22.10;99.90;;;;;;5014694;28;20029;-68
2022/09/20 04:16:23;;;;;;;2.63;0.50;;;22.00;99.90;;;;;;5014050;28;20029;-68
2022/09/20 04:19:11;;;;;;;5.25;0.93;;;22.00;99.90;;;;;;5013924;28;20026;-68
2022/09/20 04:21:56;;;;;;;4.75;0.75;;;21.90;99.90;;;;;;5012511;28;20049;-68
2022/09/20 04:24:29;;;;;;;4.75;0.90;;;21.90;99.90;;;;;;5012657;28;20119;-67
2022/09/20 04:27:17;;;;;;;4.32;0.55;;;21.80;99.90;;;;;;5014045;28;20060;-67
2022/09/20 04:29:55;;;;;;;3.30;0.68;;;21.60;99.90;;;;;;5014110;28;20033;-68
2022/09/20 04:32:31;;;;;;;4.30;0.80;;;21.60;99.90;;;;;;5013763;28;20026;-68
2022/09/20 04:38:20;;;;;;;3.43;0.70;;;22.30;99.90;;;;;;5009548;28;20091;-68
2022/09/20 04:41:16;;;;;;;3.40;0.75;;;22.20;99.90;;;;;;5013700;28;20057;-68
2022/09/20 04:44:01;;;;;;;4.32;0.60;;;22.40;99.90;;;;;;5013508;28;20026;-68
2022/09/20 04:47:00;;;;;;;4.28;1.02;;;22.40;99.90;;;;;;5013613;28;20042;-69
2022/09/20 04:49:43;;;;;;;3.25;0.70;;;22.30;99.90;;;;;;5013437;28;20030;-69
2022/09/20 04:52:37;;;;;;;3.13;0.75;;;22.10;99.90;;;;;;5013575;28;20375;-69
2022/09/20 04:55:26;;;;;;;5.20;0.88;;;21.90;99.90;;;;;;5013586;28;20037;-69
2022/09/20 04:58:31;;;;;;;3.50;0.75;;;21.70;99.90;;;;;;5012324;28;20034;-68
2022/09/20 05:01:18;;;;;;;5.53;0.50;;;21.30;99.90;;;;;;5012395;28;20022;-68
2022/09/20 05:04:07;;;;;;;4.53;1.05;;;21.10;99.90;;;;;;5012732;28;20030;-68
2022/09/20 05:06:53;;;;;;;7.07;1.38;;;20.90;99.90;;;;;;5012157;28;20046;-68
2022/09/20 05:09:33;;;;;;;2.97;0.55;;;21.10;99.90;;;;;;5012242;28;20026;-68
2022/09/20 05:12:24;;;;;;;4.45;0.57;;;21.40;99.90;;;;;;5013019;28;20509;-68
2022/09/20 05:15:10;;;;;;;3.85;0.75;;;21.40;99.90;;;;;;5013772;28;20355;-68
2022/09/20 05:18:09;;;;;;;4.20;0.90;;;21.10;99.90;;;;;;5013097;28;20390;-69
2022/09/20 05:20:49;;;;;;;3.53;0.75;;;20.90;99.90;;;;;;5013423;28;20041;-69
2022/09/20 05:23:43;;;;;;;4.68;0.98;;;20.90;99.90;;;;;;5013207;28;20088;-69
2022/09/20 05:26:27;;;;;;;4.75;0.85;;;20.90;99.90;;;;;;5013222;28;20042;-69
2022/09/20 05:29:18;;;;;;;4.28;0.88;;;20.80;99.90;;;;;;5013201;28;20030;-69
2022/09/20 05:32:41;;;;;;;3.92;0.73;;;20.70;99.90;;;;;;5013170;28;20096;-68
2022/09/20 05:35:26;;;;;;;3.40;0.70;;;20.60;99.90;;;;;;4991393;28;20522;-68
2022/09/20 05:38:03;;;;;;;7.00;1.05;;;20.60;99.90;;;;;;4991485;28;20031;-69
2022/09/20 05:40:54;;;;;;;6.30;0.88;;;20.40;99.90;;;;;;5008513;28;20463;-69
2022/09/20 05:43:30;;;;;;;4.45;0.98;;;20.20;99.90;;;;;;5013321;28;20422;-68
2022/09/20 05:46:07;;;;;;;4.15;0.65;;;20.30;99.90;;;;;;5013675;28;20386;-68
2022/09/20 05:48:37;;;;;;;6.47;1.10;;;20.30;99.90;;;;;;5016571;28;20497;-68
2022/09/20 05:51:32;;;;;;;3.42;0.80;;;20.40;99.90;;;;;;5016638;28;20025;-68
2022/09/20 05:54:36;;;;;;;4.47;0.80;;;20.50;99.90;;;;;;5016670;28;20030;-68
2022/09/20 05:57:38;;;;;;;7.35;1.20;;;20.50;99.90;;;;;;5015280;28;20079;-68
2022/09/20 06:00:26;;;;;;;5.13;0.90;;;20.40;99.90;;;;;;5013252;28;20044;-68
2022/09/20 06:03:08;;;;;;;8.35;1.48;;;20.40;99.90;;;;;;5016326;28;20028;-68
2022/09/20 06:05:38;;;;;;;6.75;0.90;;;20.20;99.90;;;;;;5016193;28;20042;-69
2022/09/20 06:08:26;;;;;;;7.60;0.98;;;20.00;99.90;;;;;;5016643;28;20030;-68
2022/09/20 06:11:01;;;;;;;5.43;1.02;;;19.80;99.90;;;;;;5014304;28;20116;-69
2022/09/20 06:13:41;;;;;;;5.22;1.10;;;19.70;99.90;;;;;;5015670;28;20033;-68
2022/09/20 06:16:30;;;;;;;5.23;0.87;;;19.50;99.90;;;;;;5015138;28;20101;-69
2022/09/20 06:19:18;;;;;;;6.50;1.08;;;19.50;99.90;;;;;;5015725;28;20036;-69
2022/09/20 06:21:55;;;;;;;4.72;0.73;;;19.80;99.90;;;;;;5015871;28;20076;-69
2022/09/20 06:24:31;;;;;;;8.40;1.25;;;19.80;99.90;;;;;;5014636;28;20018;-69
2022/09/20 06:27:03;;;;;;;5.97;1.08;;;19.60;99.90;;;;;;5016317;28;20022;-68
2022/09/20 06:29:35;;;;;;;2.67;0.77;;;19.50;99.90;;;;;;5016387;28;20072;-69
2022/09/20 06:32:02;;;;;;;5.63;1.33;;;19.30;99.90;;;;;;5015931;28;20121;-69
2022/09/20 06:34:30;;;;;;;6.90;1.35;;;19.10;99.90;;;;;;5015948;28;20065;-71
2022/09/20 06:43:32;;;;;;;5.80;1.60;;;19.10;99.90;;;;;;5015917;28;20037;-71
2022/09/20 06:45:59;;;;;;;7.10;1.58;;;19.10;99.90;;;;;;5015900;28;20049;-71
2022/09/20 06:48:30;;;;;;;5.50;1.00;;;18.90;99.90;;;;;;5015563;28;20435;-71
2022/09/20 06:50:57;;;;;;;4.32;1.13;;;18.80;99.90;;;;;;5015417;28;20022;-71
2022/09/20 06:53:34;;;;;;;5.32;0.93;;;18.80;99.90;;;;;;5015450;28;20034;-71
2022/09/20 06:56:02;;;;;;;5.35;1.10;;;18.60;99.90;;;;;;5015696;28;20498;-71
2022/09/20 06:58:30;;;;;;;6.28;1.10;;;18.60;99.90;;;;;;5013695;28;20489;-71
2022/09/20 07:00:57;;;;;;;7.35;1.52;;;18.50;99.90;;;;;;5015292;28;20025;-71
2022/09/20 07:03:24;;;;;;;4.90;0.88;;;18.40;99.90;;;;;;5015396;28;20518;-71
2022/09/20 07:05:52;;;;;;;3.35;0.70;;;18.50;99.90;;;;;;5015068;28;20053;-71
2022/09/20 07:08:19;;;;;;;4.10;1.15;;;18.70;99.90;;;;;;5015285;28;20060;-70
2022/09/20 07:10:47;;;;;;;5.70;1.00;;;18.90;99.90;;;;;;5015151;28;20026;-71
2022/09/20 07:13:14;;;;;;;5.05;1.42;;;18.60;99.90;;;;;;5013890;28;20117;-71
2022/09/20 07:15:41;;;;;;;6.38;0.90;;;18.20;99.90;;;;;;5015305;28;20033;-71
2022/09/20 07:18:09;;;;;;;5.72;1.15;;;17.90;99.90;;;;;;5014904;28;20030;-71
2022/09/20 07:20:36;;;;;;;5.35;1.38;;;17.70;99.90;;;;;;5013627;28;20430;-71
2022/09/20 07:23:04;;;;;;;8.40;1.70;;;17.60;99.90;;;;;;5015086;28;20021;-71
2022/09/20 07:25:32;;;;;;;5.30;1.33;;;17.50;99.90;;;;;;5014754;28;20489;-72
2022/09/20 07:27:59;;;;;;;5.78;1.10;;;17.40;99.90;;;;;;5014782;28;20022;-72
2022/09/20 07:30:27;;;;;;;6.18;1.38;;;17.40;99.90;;;;;;5014790;28;20026;-71
2022/09/20 07:32:54;;;;;;;6.82;1.17;;;17.30;99.90;;;;;;5013246;28;20076;-71
2022/09/20 07:35:21;;;;;;;5.07;1.00;;;17.20;99.90;;;;;;5014562;28;20029;-71
2022/09/20 07:37:55;;;;;;;8.18;1.25;;;17.10;99.90;;;;;;5014480;28;20109;-72
2022/09/20 07:40:22;;;;;;;7.18;1.63;;;17.00;99.90;;;;;;5014791;28;20091;-71
2022/09/20 07:42:49;;;;;;;8.07;2.38;;;17.00;99.90;;;;;;5014377;28;20072;-71
2022/09/20 07:45:17;;;;;;;16.42;8.43;;;16.90;99.90;;;;;;5014501;28;20026;-71
2022/09/20 07:47:45;;;;;;;7.25;2.30;;;16.80;99.90;;;;;;5014323;28;20026;-71
2022/09/20 07:50:13;;;;;;;7.95;1.60;;;16.70;99.90;;;;;;5014294;28;20363;-70
2022/09/20 07:52:40;;;;;;;6.15;1.33;;;16.70;99.90;;;;;;5013739;28;20025;-70
2022/09/20 07:55:08;;;;;;;4.88;2.05;;;16.60;99.90;;;;;;5013321;28;20034;-73
2022/09/20 07:57:37;;;;;;;7.53;1.55;;;16.60;99.90;;;;;;5013547;28;20397;-70
2022/09/20 08:00:08;;;;;;;6.63;1.20;;;16.50;99.90;;;;;;5014171;28;20089;-71
2022/09/20 08:02:36;;;;;;;6.07;1.20;;;16.50;99.90;;;;;;5014013;28;20105;-71
2022/09/20 08:05:04;;;;;;;7.35;1.25;;;16.40;99.90;;;;;;5014155;28;20033;-70
2022/09/20 08:07:32;;;;;;;10.20;1.20;;;16.40;99.90;;;;;;5013938;28;20446;-70
2022/09/20 08:09:59;;;;;;;5.43;1.10;;;16.40;99.90;;;;;;5013367;28;20367;-71
2022/09/20 08:12:26;;;;;;;6.45;1.45;;;16.30;99.90;;;;;;5013980;28;20041;-71
2022/09/20 08:14:54;;;;;;;5.72;1.52;;;16.40;99.90;;;;;;5013910;28;20022;-71
2022/09/20 08:17:21;;;;;;;6.45;1.40;;;16.30;99.90;;;;;;5013895;28;20125;-71
2022/09/20 08:19:49;;;;;;;7.13;1.88;;;16.20;99.90;;;;;;5013993;28;20021;-71
2022/09/20 08:22:16;;;;;;;8.85;1.65;;;16.20;99.90;;;;;;5012539;28;20366;-71
2022/09/20 08:24:44;;;;;;;5.35;1.35;;;16.20;99.90;;;;;;5012619;28;20033;-71
2022/09/20 08:27:12;;;;;;;7.95;1.20;;;16.20;99.90;;;;;;5013867;28;20104;-71
2022/09/20 08:29:39;;;;;;;4.72;1.17;;;16.20;99.90;;;;;;5013836;28;20410;-70
2022/09/20 08:32:06;;;;;;;6.97;1.70;;;16.10;99.90;;;;;;5013733;28;20021;-70
2022/09/20 08:34:34;;;;;;;6.97;1.33;;;16.10;99.90;;;;;;5012410;28;20371;-71
2022/09/20 08:37:01;;;;;;;5.40;1.27;;;16.10;99.90;;;;;;5013727;28;20061;-72
2022/09/20 08:39:28;;;;;;;5.75;1.13;;;16.10;99.90;;;;;;5013650;28;20018;-71
2022/09/20 08:42:12;;;;;;;6.88;1.20;;;16.10;99.90;;;;;;5013638;28;20022;-71
2022/09/20 08:45:04;;;;;;;5.80;1.23;;;16.10;99.90;;;;;;5013635;28;20022;-72
2022/09/20 08:47:54;;;;;;;6.50;1.10;;;16.10;99.90;;;;;;5012339;28;20120;-71
2022/09/20 08:50:22;;;;;;;8.18;1.55;;;16.00;99.90;;;;;;5013493;28;20018;-69
2022/09/20 08:52:53;;;;;;;5.18;1.30;;;16.00;99.90;;;;;;5013425;28;20029;-69
2022/09/20 08:55:26;;;;;;;7.80;1.27;;;16.00;99.90;;;;;;5013328;28;20022;-69
2022/09/20 08:57:57;;;;;;;9.20;1.05;;;16.10;99.90;;;;;;5013420;28;20510;-69
2022/09/20 09:00:35;;;;;;;8.38;1.10;;;16.00;99.90;;;;;;5013785;28;20018;-70
2022/09/20 09:03:11;;;;;;;3.40;1.10;;;16.00;99.90;;;;;;5013312;28;20542;-71
2022/09/20 09:05:54;;;;;;;7.80;1.40;;;16.00;99.90;;;;;;5013258;28;20179;-70
2022/09/20 09:08:38;;;;;;;9.10;1.92;;;16.00;99.90;;;;;;5013457;28;20030;-69
2022/09/20 09:11:12;;;;;;;10.20;1.70;;;16.00;99.90;;;;;;5013169;28;20017;-69
2022/09/20 09:13:54;;;;;;;9.25;1.42;;;15.90;99.90;;;;;;5013599;28;20030;-68
2022/09/20 09:16:24;;;;;;;6.43;1.30;;;15.90;99.90;;;;;;5013302;28;20109;-70
2022/09/20 09:18:52;;;;;;;5.88;1.20;;;16.00;99.90;;;;;;5013125;28;20052;-69
2022/09/20 09:21:23;;;;;;;5.82;1.40;;;15.90;99.90;;;;;;5018633;28;20105;-69
2022/09/20 09:24:04;;;;;;;8.38;1.30;;;16.00;99.90;;;;;;5018468;28;20030;-70
2022/09/20 09:26:40;;;;;;;9.65;1.95;;;15.90;99.90;;;;;;5018559;28;20037;-71
2022/09/20 09:29:23;;;;;;;8.85;1.67;;;15.90;99.90;;;;;;5019806;28;20026;-71
2022/09/20 09:31:55;;;;;;;16.02;2.58;;;15.90;99.90;;;;;;5018471;28;20037;-71
2022/09/20 09:34:27;;;;;;;9.75;1.70;;;15.90;99.90;;;;;;5019636;28;20445;-72
2022/09/20 09:36:56;;;;;;;5.57;1.08;;;15.90;99.90;;;;;;5019558;28;20033;-73
2022/09/20 09:39:25;;;;;;;6.70;1.40;;;15.90;99.90;;;;;;5019545;28;20026;-73
2022/09/20 09:41:52;;;;;;;7.47;1.20;;;15.90;99.90;;;;;;5019693;28;20014;-72
2022/09/20 09:44:24;;;;;;;10.07;1.42;;;15.90;99.90;;;;;;5019557;28;20024;-72
2022/09/20 09:46:53;;;;;;;6.57;1.17;;;15.90;99.90;;;;;;5019381;28;20025;-73
2022/09/20 09:49:24;;;;;;;8.45;1.50;;;15.80;99.90;;;;;;5019170;28;20022;-73
2022/09/20 09:52:00;;;;;;;9.18;1.80;;;15.80;99.90;;;;;;5019464;28;20394;-73
2022/09/20 09:54:41;;;;;;;8.60;1.55;;;15.80;99.90;;;;;;5019787;28;20022;-73
2022/09/20 09:57:32;;;;;;;7.95;1.23;;;15.90;99.90;;;;;;5019637;28;20045;-72
2022/09/20 10:00:12;;;;;;;9.07;1.80;;;15.90;99.90;;;;;;5019560;28;20101;-71
2022/09/20 10:03:17;;;;;;;7.63;1.23;;;15.80;99.90;;;;;;5019430;28;20025;-70
2022/09/20 10:05:57;;;;;;;8.15;1.10;;;15.80;99.90;;;;;;5019037;28;20502;-72
2022/09/20 10:08:58;;;;;;;7.45;1.55;;;15.80;99.90;;;;;;5019560;28;20052;-71
2022/09/20 10:11:38;;;;;;;8.90;1.70;;;15.80;99.90;;;;;;5019704;28;20076;-70
2022/09/20 10:14:35;;;;;;;9.43;2.10;;;15.80;99.90;;;;;;5019197;28;20022;-72
2022/09/20 10:17:09;;;;;;;7.05;1.48;;;15.90;99.90;;;;;;5018964;28;20044;-70
2022/09/20 10:20:01;;;;;;;9.60;1.63;;;15.80;99.90;;;;;;5019254;28;20026;-70
2022/09/20 10:23:06;;;;;;;9.73;1.80;;;15.80;99.90;;;;;;5019370;28;20520;-70
2022/09/20 10:25:36;;;;;;;9.05;1.60;;;15.70;99.90;;;;;;5016177;28;20060;-71
2022/09/20 10:28:28;;;;;;;10.23;1.60;;;15.70;99.90;;;;;;5019911;28;20026;-70
2022/09/20 10:31:23;;;;;;;7.50;1.45;;;15.80;99.90;;;;;;5019325;28;20075;-70
2022/09/20 10:34:09;;;;;;;5.85;1.00;;;15.70;99.90;;;;;;5016156;28;20097;-70
2022/09/20 10:36:50;;;;;;;8.70;1.52;;;15.70;99.90;;;;;;5016065;28;20029;-70
2022/09/20 10:39:34;;;;;;;7.38;1.20;;;15.80;99.90;;;;;;5016191;28;20533;-71
2022/09/20 10:45:17;;;;;;;7.90;1.20;;;15.60;99.90;;;;;;5015873;28;20034;-71
2022/09/20 10:48:00;;;;;;;8.00;1.30;;;15.60;99.90;;;;;;5015988;28;20026;-70
2022/09/20 10:51:06;;;;;;;6.82;1.38;;;15.50;99.90;;;;;;5014473;28;20029;-70
2022/09/20 10:54:08;;;;;;;6.22;1.23;;;15.60;99.90;;;;;;5015717;28;20029;-71
2022/09/20 10:56:50;;;;;;;5.57;1.30;;;15.60;99.90;;;;;;5015686;28;20065;-71
2022/09/20 10:59:26;;;;;;;9.05;1.40;;;15.70;99.90;;;;;;5015629;28;20108;-71
2022/09/20 11:02:16;;;;;;;9.65;1.58;;;15.60;99.90;;;;;;5013812;28;20532;-71
2022/09/20 11:05:19;;;;;;;11.70;1.13;;;15.60;99.90;;;;;;5013417;28;20032;-71
2022/09/20 11:08:02;;;;;;;4.65;1.10;;;15.70;99.90;;;;;;5015381;28;20107;-71
2022/09/20 11:10:32;;;;;;;9.55;1.90;;;15.60;99.90;;;;;;5013949;28;20034;-72
2022/09/20 11:13:08;;;;;;;6.53;1.65;;;15.60;99.90;;;;;;5013179;28;20034;-70
2022/09/20 11:15:54;;;;;;;9.27;1.20;;;15.60;99.90;;;;;;5015510;28;20047;-72
2022/09/20 11:18:37;;;;;;;7.05;1.13;;;15.50;99.90;;;;;;5015250;28;20497;-71
2022/09/20 11:21:35;;;;;;;10.20;1.75;;;15.40;99.90;;;;;;5015263;28;20024;-70
2022/09/20 11:24:27;;;;;;;8.55;1.20;;;15.50;99.90;;;;;;5015443;28;20084;-72
2022/09/20 11:27:01;;;;;;;7.03;1.60;;;15.50;99.90;;;;;;5013842;28;20030;-71
2022/09/20 11:29:32;;;;;;;9.55;1.52;;;15.50;99.90;;;;;;5015313;28;20084;-71
2022/09/20 11:32:44;;;;;;;6.47;1.30;;;15.50;99.90;;;;;;5015076;28;20026;-71
2022/09/20 11:35:14;;;;;;;9.23;1.42;;;15.50;99.90;;;;;;4991182;28;20030;-71
2022/09/20 11:38:00;;;;;;;8.75;1.10;;;15.40;99.90;;;;;;5008840;28;20038;-71
2022/09/20 11:40:40;;;;;;;8.02;1.35;;;15.30;99.90;;;;;;5011648;28;20537;-71
2022/09/20 11:43:10;;;;;;;7.93;1.73;;;15.30;99.90;;;;;;5012240;28;20018;-71
2022/09/20 11:45:41;;;;;;;8.07;1.75;;;15.30;99.90;;;;;;5012566;28;20022;-71
2022/09/20 11:48:24;;;;;;;7.13;1.02;;;15.30;99.90;;;;;;5012868;28;20390;-71
2022/09/20 11:51:27;;;;;;;10.07;1.15;;;15.30;99.90;;;;;;5013289;28;20127;-72
2022/09/20 11:54:03;;;;;;;6.05;0.90;;;15.30;99.90;;;;;;5014727;28;20057;-72
2022/09/20 11:56:33;;;;;;;9.50;1.20;;;15.30;99.90;;;;;;5014861;28;20064;-72
2022/09/20 11:59:07;;;;;;;10.30;1.48;;;15.30;99.90;;;;;;5014427;28;20390;-72
2022/09/20 12:01:42;;;;;;;8.00;1.40;;;15.30;99.90;;;;;;5014584;28;20018;-72
2022/09/20 12:04:25;;;;;;;6.13;1.10;;;15.20;99.90;;;;;;5014504;28;20109;-72
2022/09/20 12:07:23;;;;;;;7.15;0.90;;;15.10;99.90;;;;;;5014228;28;20057;-71
2022/09/20 12:10:00;;;;;;;10.25;1.20;;;15.20;99.90;;;;;;5014454;28;20030;-72
2022/09/20 12:12:50;;;;;;;8.35;1.27;;;15.30;99.90;;;;;;5014275;28;20022;-72
2022/09/20 12:15:40;;;;;;;7.72;1.20;;;15.20;99.90;;;;;;5013042;28;20026;-71
2022/09/20 12:18:46;;;;;;;7.10;1.75;;;15.10;99.90;;;;;;5014181;28;20032;-71
2022/09/20 12:21:17;;;;;;;11.90;1.55;;;15.10;99.90;;;;;;5011092;28;20141;-71
2022/09/20 12:23:46;;;;;;;8.82;1.30;;;15.10;99.90;;;;;;5014073;28;20014;-72
2022/09/20 12:26:38;;;;;;;8.50;1.15;;;15.20;99.90;;;;;;5014355;28;20470;-73
2022/09/20 12:29:23;;;;;;;10.45;1.40;;;15.10;99.90;;;;;;5010907;28;20034;-72
2022/09/20 12:32:02;;;;;;;6.20;1.20;;;15.20;99.90;;;;;;5014003;28;20053;-72
2022/09/20 12:34:35;;;;;;;8.52;1.05;;;15.20;99.90;;;;;;5012731;28;20037;-72
2022/09/20 12:37:03;;;;;;;9.15;2.08;;;15.20;99.90;;;;;;5013964;28;20069;-73
2022/09/20 12:39:35;;;;;;;10.65;1.60;;;15.20;99.90;;;;;;5012440;28;20026;-72
2022/09/20 12:42:12;;;;;;;8.70;1.40;;;15.20;99.90;;;;;;5012448;28;20025;-71
2022/09/20 12:44:50;;;;;;;11.90;1.58;;;15.20;99.90;;;;;;5014101;28;20041;-71
2022/09/20 12:47:22;;;;;;;8.52;1.70;;;15.30;99.90;;;;;;5013785;28;20046;-72
2022/09/20 12:55:28;;;;;;;7.93;1.25;;;15.20;99.90;;;;;;5013171;28;20048;-72
2022/09/20 12:58:16;;;;;;;9.15;1.27;;;15.30;99.90;;;;;;5013476;28;20026;-72
2022/09/20 13:00:49;;;;;;;10.98;1.58;;;15.20;99.90;;;;;;5013694;28;20021;-71
2022/09/20 13:03:27;;;;;;;6.03;1.30;;;15.20;99.90;;;;;;5013709;28;20026;-71
2022/09/20 13:06:16;;;;;;;9.10;1.30;;;15.30;99.90;;;;;;5013241;28;20117;-71
2022/09/20 13:09:16;;;;;;;13.45;1.60;;;15.30;99.90;;;;;;5013351;28;20427;-72
2022/09/20 13:11:54;;;;;;;7.60;1.15;;;15.20;99.90;;;;;;4990570;28;20037;-72
2022/09/20 13:14:28;;;;;;;11.32;1.70;;;15.20;99.90;;;;;;5013397;28;20026;-71
2022/09/20 13:17:15;;;;;;;9.98;1.20;;;15.20;99.90;;;;;;5012022;28;20394;-71
2022/09/20 13:19:44;;;;;;;7.07;1.13;;;15.20;99.90;;;;;;5013073;28;20041;-71
2022/09/20 13:22:25;;;;;;;8.00;1.10;;;15.20;99.90;;;;;;5013183;28;20030;-71
2022/09/20 13:25:04;;;;;;;9.27;1.20;;;15.20;99.90;;;;;;5013372;28;20041;-71
2022/09/20 13:27:53;;;;;;;10.25;1.48;;;15.20;99.90;;;;;;5013268;28;20014;-72
2022/09/20 13:30:30;;;;;;;8.38;1.40;;;15.30;99.90;;;;;;5013138;28;20026;-73
2022/09/20 13:32:57;;;;;;;15.50;1.88;;;15.20;99.90;;;;;;5013313;28;20474;-73
2022/09/20 13:35:30;;;;;;;12.10;1.77;;;15.20;99.90;;;;;;5013378;28;20025;-73
2022/09/20 13:38:06;;;;;;;8.93;1.00;;;15.20;99.90;;;;;;5013859;28;20022;-73
2022/09/20 13:40:46;;;;;;;10.18;1.95;;;15.20;99.90;;;;;;5013108;28;20018;-73
2022/09/20 13:43:40;;;;;;;8.25;1.40;;;15.10;99.90;;;;;;5013392;28;20374;-72
2022/09/20 13:46:15;;;;;;;8.30;1.20;;;15.10;99.90;;;;;;5011648;28;20037;-71
2022/09/20 13:49:22;;;;;;;10.90;1.52;;;15.10;99.90;;;;;;5013069;28;20034;-71
2022/09/20 13:51:50;;;;;;;7.28;1.50;;;15.10;99.90;;;;;;5005090;28;20044;-71
2022/09/20 13:54:29;;;;;;;8.00;1.42;;;15.10;99.90;;;;;;5012967;28;20022;-71
2022/09/20 13:57:16;;;;;;;6.90;1.00;;;15.10;99.90;;;;;;5011612;28;20026;-72
2022/09/20 13:59:45;;;;;;;9.32;1.65;;;15.10;99.90;;;;;;5012930;28;20030;-71
2022/09/20 14:02:31;;;;;;;8.73;1.63;;;15.10;99.90;;;;;;5012766;28;20504;-72
2022/09/20 14:05:06;;;;;;;17.10;2.05;;;15.20;99.90;;;;;;5012853;28;20444;-71
2022/09/20 14:07:35;;;;;;;8.60;1.50;;;15.10;99.90;;;;;;5013235;28;20034;-70
2022/09/20 14:10:03;;;;;;;12.48;1.88;;;15.10;99.90;;;;;;5015425;28;20030;-71
2022/09/20 14:12:32;;;;;;;14.10;2.08;;;15.00;99.90;;;;;;5016371;28;20026;-71